createdAt,value
2023-04-30T00:00:07.848Z,6.11
2023-04-30T00:01:14.366Z,6.09
2023-04-30T00:02:07.826Z,6.07
2023-04-30T00:03:07.867Z,6.07
2023-04-30T00:04:07.848Z,6.06
2023-04-30T00:05:07.772Z,6.04
2023-04-30T00:06:07.837Z,6.03
2023-04-30T00:07:07.733Z,6.00
2023-04-30T00:08:07.722Z,5.98
2023-04-30T00:09:07.725Z,5.96
2023-04-30T00:10:07.723Z,5.95
2023-04-30T00:11:07.705Z,5.91
2023-04-30T00:12:07.684Z,5.89
2023-04-30T00:13:07.677Z,5.88
2023-04-30T00:14:07.663Z,5.88
2023-04-30T00:15:07.666Z,5.85
2023-04-30T00:16:07.662Z,5.83
2023-04-30T00:17:07.632Z,5.81
2023-04-30T00:18:07.703Z,5.78
2023-04-30T00:19:07.620Z,5.78
2023-04-30T00:20:07.644Z,5.81
2023-04-30T00:21:07.587Z,5.81
2023-04-30T00:22:07.571Z,5.78
2023-04-30T00:23:07.567Z,5.74
2023-04-30T00:24:07.551Z,5.73
2023-04-30T00:25:07.568Z,5.71
2023-04-30T00:26:07.538Z,5.71
2023-04-30T00:27:07.529Z,5.68
2023-04-30T00:28:07.517Z,5.70
2023-04-30T00:29:07.494Z,5.66
2023-04-30T00:30:07.507Z,5.63
2023-04-30T00:31:07.484Z,5.60
2023-04-30T00:32:07.511Z,5.56
2023-04-30T00:33:07.479Z,5.52
2023-04-30T00:34:07.440Z,5.49
2023-04-30T00:35:07.448Z,5.50
2023-04-30T00:36:07.412Z,5.48
2023-04-30T00:37:07.409Z,5.46
2023-04-30T00:38:07.407Z,5.45
2023-04-30T00:39:07.390Z,5.41
2023-04-30T00:40:07.385Z,5.43
2023-04-30T00:41:07.366Z,5.40
2023-04-30T00:42:07.349Z,5.41
2023-04-30T00:43:07.337Z,5.37
2023-04-30T00:44:07.326Z,5.35
2023-04-30T00:45:07.344Z,5.37
2023-04-30T00:46:07.350Z,5.32
2023-04-30T00:47:07.295Z,5.32
2023-04-30T00:48:07.335Z,5.30
2023-04-30T00:49:07.271Z,5.27
2023-04-30T00:50:07.282Z,5.27
2023-04-30T00:51:07.242Z,5.25
2023-04-30T00:52:07.239Z,5.23
2023-04-30T00:53:07.223Z,5.20
2023-04-30T00:54:07.214Z,5.20
2023-04-30T00:55:07.235Z,5.19
2023-04-30T00:56:07.186Z,5.16
2023-04-30T00:57:07.214Z,5.14
2023-04-30T00:58:07.192Z,5.14
2023-04-30T00:59:07.163Z,5.10
2023-04-30T01:00:07.166Z,5.10
2023-04-30T01:01:07.207Z,5.09
2023-04-30T01:02:07.180Z,5.09
2023-04-30T01:03:07.220Z,5.10
2023-04-30T01:04:07.106Z,5.09
2023-04-30T01:05:07.121Z,5.07
2023-04-30T01:06:07.106Z,5.07
2023-04-30T01:07:07.066Z,5.07
2023-04-30T01:08:07.058Z,5.07
2023-04-30T01:09:07.064Z,5.05
2023-04-30T01:10:07.096Z,5.05
2023-04-30T01:11:07.048Z,5.04
2023-04-30T01:12:07.032Z,5.02
2023-04-30T01:13:07.005Z,4.98
2023-04-30T01:14:06.993Z,4.96
2023-04-30T01:15:07.002Z,4.96
2023-04-30T01:16:06.997Z,4.98
2023-04-30T01:17:06.954Z,4.98
2023-04-30T01:18:07.042Z,4.96
2023-04-30T01:19:07.017Z,4.95
2023-04-30T01:20:06.943Z,4.91
2023-04-30T01:21:06.922Z,4.88
2023-04-30T01:22:06.907Z,4.88
2023-04-30T01:23:06.907Z,4.83
2023-04-30T01:24:06.873Z,4.80
2023-04-30T01:25:06.897Z,4.80
2023-04-30T01:26:06.861Z,4.80
2023-04-30T01:27:06.855Z,4.79
2023-04-30T01:28:06.835Z,4.80
2023-04-30T01:29:06.832Z,4.77
2023-04-30T01:30:06.851Z,4.76
2023-04-30T01:31:06.834Z,4.76
2023-04-30T01:32:06.803Z,4.72
2023-04-30T01:33:06.801Z,4.69
2023-04-30T01:34:06.769Z,4.69
2023-04-30T01:35:06.787Z,4.64
2023-04-30T01:36:06.753Z,4.62
2023-04-30T01:37:06.735Z,4.61
2023-04-30T01:38:06.736Z,4.57
2023-04-30T01:39:06.717Z,4.55
2023-04-30T01:40:06.726Z,4.55
2023-04-30T01:41:06.698Z,4.52
2023-04-30T01:42:06.680Z,4.51
2023-04-30T01:43:06.680Z,4.50
2023-04-30T01:44:06.676Z,4.43
2023-04-30T01:45:06.684Z,4.43
2023-04-30T01:46:06.719Z,4.43
2023-04-30T01:47:06.622Z,4.43
2023-04-30T01:48:06.701Z,4.42
2023-04-30T01:49:06.605Z,4.43
2023-04-30T01:50:06.597Z,4.44
2023-04-30T01:51:06.608Z,4.43
2023-04-30T01:52:06.564Z,4.42
2023-04-30T01:53:06.572Z,4.42
2023-04-30T01:54:06.552Z,4.42
2023-04-30T01:55:06.552Z,4.42
2023-04-30T01:56:06.559Z,4.40
2023-04-30T01:57:06.525Z,4.39
2023-04-30T01:58:06.511Z,4.36
2023-04-30T01:59:06.494Z,4.34
2023-04-30T02:00:06.480Z,4.33
2023-04-30T02:01:06.523Z,4.32
2023-04-30T02:02:06.465Z,4.29
2023-04-30T02:03:06.530Z,4.29
2023-04-30T02:04:06.513Z,4.28
2023-04-30T02:05:06.421Z,4.28
2023-04-30T02:06:06.482Z,4.28
2023-04-30T02:07:06.431Z,4.32
2023-04-30T02:08:06.404Z,4.29
2023-04-30T02:09:06.392Z,4.29
2023-04-30T02:10:06.385Z,4.26
2023-04-30T02:11:06.380Z,4.25
2023-04-30T02:12:06.354Z,4.24
2023-04-30T02:13:06.346Z,4.25
2023-04-30T02:14:06.327Z,4.26
2023-04-30T02:15:06.326Z,4.25
2023-04-30T02:16:06.372Z,4.25
2023-04-30T02:17:06.292Z,4.26
2023-04-30T02:18:06.341Z,4.26
2023-04-30T02:19:06.277Z,4.25
2023-04-30T02:20:06.254Z,4.24
2023-04-30T02:21:06.266Z,4.26
2023-04-30T02:22:06.244Z,4.25
2023-04-30T02:23:06.228Z,4.28
2023-04-30T02:24:06.276Z,4.28
2023-04-30T02:25:06.217Z,4.28
2023-04-30T02:26:06.207Z,4.26
2023-04-30T02:27:06.184Z,4.26
2023-04-30T02:28:06.177Z,4.28
2023-04-30T02:29:06.175Z,4.28
2023-04-30T02:30:06.160Z,4.26
2023-04-30T02:31:06.191Z,4.25
2023-04-30T02:32:06.170Z,4.24
2023-04-30T02:33:06.144Z,4.25
2023-04-30T02:34:06.104Z,4.25
2023-04-30T02:35:06.094Z,4.25
2023-04-30T02:36:06.113Z,4.21
2023-04-30T02:37:06.068Z,4.21
2023-04-30T02:38:06.058Z,4.19
2023-04-30T02:39:06.061Z,4.18
2023-04-30T02:40:06.036Z,4.18
2023-04-30T02:41:06.045Z,4.16
2023-04-30T02:42:06.021Z,4.16
2023-04-30T02:43:06.012Z,4.15
2023-04-30T02:44:05.991Z,4.14
2023-04-30T02:45:05.978Z,4.12
2023-04-30T02:46:06.024Z,4.14
2023-04-30T02:47:05.962Z,4.10
2023-04-30T02:48:06.000Z,4.08
2023-04-30T02:49:05.937Z,4.07
2023-04-30T02:50:05.930Z,4.07
2023-04-30T02:51:05.936Z,4.08
2023-04-30T02:52:05.895Z,4.08
2023-04-30T02:53:05.895Z,4.10
2023-04-30T02:54:05.902Z,4.10
2023-04-30T02:55:05.881Z,4.10
2023-04-30T02:56:05.882Z,4.08
2023-04-30T02:57:05.848Z,4.14
2023-04-30T02:58:05.855Z,4.12
2023-04-30T02:59:05.833Z,4.10
2023-04-30T03:00:05.840Z,4.08
2023-04-30T03:01:05.871Z,4.08
2023-04-30T03:02:05.822Z,4.08
2023-04-30T03:03:05.926Z,4.07
2023-04-30T03:04:05.772Z,4.07
2023-04-30T03:05:05.773Z,4.07
2023-04-30T03:06:05.832Z,4.07
2023-04-30T03:07:05.750Z,4.07
2023-04-30T03:08:05.724Z,4.06
2023-04-30T03:09:05.711Z,4.04
2023-04-30T03:10:05.695Z,4.03
2023-04-30T03:11:05.703Z,4.01
2023-04-30T03:12:05.679Z,4.00
2023-04-30T03:13:05.682Z,3.98
2023-04-30T03:14:05.705Z,3.97
2023-04-30T03:15:05.648Z,3.94
2023-04-30T03:16:05.682Z,3.90
2023-04-30T03:17:05.626Z,3.89
2023-04-30T03:18:05.648Z,3.89
2023-04-30T03:19:05.626Z,3.86
2023-04-30T03:20:05.606Z,3.86
2023-04-30T03:21:05.598Z,3.83
2023-04-30T03:22:05.573Z,3.79
2023-04-30T03:23:05.556Z,3.79
2023-04-30T03:24:05.549Z,3.78
2023-04-30T03:25:05.547Z,3.76
2023-04-30T03:26:05.570Z,3.76
2023-04-30T03:27:05.521Z,3.76
2023-04-30T03:28:05.514Z,3.75
2023-04-30T03:29:05.503Z,3.76
2023-04-30T03:30:05.499Z,3.71
2023-04-30T03:31:05.568Z,3.71
2023-04-30T03:32:05.467Z,3.70
2023-04-30T03:33:05.553Z,3.72
2023-04-30T03:34:05.447Z,3.72
2023-04-30T03:35:05.447Z,3.70
2023-04-30T03:36:05.428Z,3.61
2023-04-30T03:37:05.418Z,3.52
2023-04-30T03:38:05.421Z,3.46
2023-04-30T03:39:05.388Z,3.50
2023-04-30T03:40:05.380Z,3.53
2023-04-30T03:41:05.388Z,3.50
2023-04-30T03:42:05.359Z,3.53
2023-04-30T03:43:05.357Z,3.57
2023-04-30T03:44:05.340Z,3.60
2023-04-30T03:45:05.325Z,3.60
2023-04-30T03:46:05.379Z,3.60
2023-04-30T03:47:05.306Z,3.62
2023-04-30T03:48:05.324Z,3.64
2023-04-30T03:49:05.286Z,3.67
2023-04-30T03:50:05.266Z,3.68
2023-04-30T03:51:05.274Z,3.71
2023-04-30T03:52:05.248Z,3.72
2023-04-30T03:53:05.251Z,3.75
2023-04-30T03:54:05.235Z,3.72
2023-04-30T03:55:05.221Z,3.70
2023-04-30T03:56:05.225Z,3.72
2023-04-30T03:57:05.210Z,3.75
2023-04-30T03:58:05.178Z,3.75
2023-04-30T03:59:05.175Z,3.76
2023-04-30T04:00:05.156Z,3.75
2023-04-30T04:01:05.171Z,3.72
2023-04-30T04:02:05.159Z,3.78
2023-04-30T04:03:05.189Z,3.76
2023-04-30T04:04:05.165Z,3.75
2023-04-30T04:05:05.107Z,3.75
2023-04-30T04:06:05.164Z,3.72
2023-04-30T04:07:05.083Z,3.71
2023-04-30T04:08:05.072Z,3.72
2023-04-30T04:09:05.069Z,3.72
2023-04-30T04:10:05.045Z,3.75
2023-04-30T04:11:05.058Z,3.72
2023-04-30T04:12:05.025Z,3.72
2023-04-30T04:13:05.022Z,3.71
2023-04-30T04:14:05.004Z,3.71
2023-04-30T04:15:05.001Z,3.72
2023-04-30T04:16:05.025Z,3.72
2023-04-30T04:17:04.979Z,3.72
2023-04-30T04:18:04.981Z,3.72
2023-04-30T04:19:04.973Z,3.75
2023-04-30T04:20:04.945Z,3.75
2023-04-30T04:21:04.958Z,3.75
2023-04-30T04:22:04.944Z,3.78
2023-04-30T04:23:04.930Z,3.78
2023-04-30T04:24:04.918Z,3.79
2023-04-30T04:25:04.893Z,3.79
2023-04-30T04:26:04.910Z,3.83
2023-04-30T04:27:04.884Z,3.82
2023-04-30T04:28:04.852Z,3.83
2023-04-30T04:29:04.839Z,3.85
2023-04-30T04:30:04.839Z,3.86
2023-04-30T04:31:04.836Z,3.86
2023-04-30T04:32:04.844Z,3.89
2023-04-30T04:33:04.921Z,3.89
2023-04-30T04:34:04.797Z,3.89
2023-04-30T04:35:04.779Z,3.88
2023-04-30T04:36:04.763Z,3.90
2023-04-30T04:37:04.766Z,3.90
2023-04-30T04:38:04.750Z,3.90
2023-04-30T04:39:04.727Z,3.90
2023-04-30T04:40:04.717Z,3.92
2023-04-30T04:41:04.721Z,3.96
2023-04-30T04:42:07.388Z,3.98
2023-04-30T04:43:04.678Z,4.00
2023-04-30T04:44:04.670Z,4.01
2023-04-30T04:45:04.663Z,4.03
2023-04-30T04:46:04.703Z,4.03
2023-04-30T04:47:04.639Z,4.06
2023-04-30T04:48:04.702Z,4.07
2023-04-30T04:49:04.629Z,4.12
2023-04-30T04:50:04.608Z,4.15
2023-04-30T04:51:04.630Z,4.15
2023-04-30T04:52:04.577Z,4.19
2023-04-30T04:53:04.583Z,4.19
2023-04-30T04:54:04.567Z,4.19
2023-04-30T04:55:04.572Z,4.22
2023-04-30T04:56:04.554Z,4.22
2023-04-30T04:57:04.536Z,4.24
2023-04-30T04:58:04.513Z,4.26
2023-04-30T04:59:04.514Z,4.29
2023-04-30T05:00:04.491Z,4.32
2023-04-30T05:01:04.490Z,4.34
2023-04-30T05:02:04.518Z,4.36
2023-04-30T05:03:04.538Z,4.36
2023-04-30T05:04:04.487Z,4.37
2023-04-30T05:05:04.444Z,4.42
2023-04-30T05:06:04.476Z,4.42
2023-04-30T05:07:04.417Z,4.43
2023-04-30T05:08:04.403Z,4.44
2023-04-30T05:09:04.390Z,4.46
2023-04-30T05:10:04.395Z,4.50
2023-04-30T05:11:04.407Z,4.50
2023-04-30T05:12:04.355Z,4.52
2023-04-30T05:13:04.354Z,4.57
2023-04-30T05:14:04.333Z,4.57
2023-04-30T05:15:04.329Z,4.59
2023-04-30T05:16:04.361Z,4.59
2023-04-30T05:17:04.329Z,4.62
2023-04-30T05:18:04.364Z,4.67
2023-04-30T05:19:04.309Z,4.67
2023-04-30T05:20:04.283Z,4.70
2023-04-30T05:21:04.260Z,4.73
2023-04-30T05:22:04.316Z,4.77
2023-04-30T05:23:04.245Z,4.80
2023-04-30T05:24:04.228Z,4.84
2023-04-30T05:25:04.220Z,4.86
2023-04-30T05:26:04.209Z,4.89
2023-04-30T05:27:04.210Z,4.92
2023-04-30T05:28:04.190Z,4.95
2023-04-30T05:29:04.183Z,4.96
2023-04-30T05:30:04.171Z,4.99
2023-04-30T05:31:04.178Z,5.04
2023-04-30T05:32:04.218Z,5.05
2023-04-30T05:33:04.231Z,5.09
2023-04-30T05:34:04.122Z,5.13
2023-04-30T05:35:04.100Z,5.16
2023-04-30T05:36:04.100Z,5.19
2023-04-30T05:37:04.093Z,5.22
2023-04-30T05:38:04.065Z,5.25
2023-04-30T05:39:04.167Z,5.30
2023-04-30T05:40:04.062Z,5.34
2023-04-30T05:41:04.046Z,5.40
2023-04-30T05:42:04.044Z,5.43
2023-04-30T05:43:04.017Z,5.48
2023-04-30T05:44:04.013Z,5.52
2023-04-30T05:45:04.000Z,5.55
2023-04-30T05:46:04.024Z,5.59
2023-04-30T05:47:03.990Z,5.63
2023-04-30T05:48:04.011Z,5.68
2023-04-30T05:49:03.954Z,5.71
2023-04-30T05:50:03.941Z,5.75
2023-04-30T05:51:03.926Z,5.82
2023-04-30T05:52:03.933Z,5.83
2023-04-30T05:53:03.904Z,5.88
2023-04-30T05:54:03.896Z,5.91
2023-04-30T05:55:03.889Z,5.95
2023-04-30T05:56:03.880Z,5.96
2023-04-30T05:57:03.891Z,6.01
2023-04-30T05:58:03.866Z,6.07
2023-04-30T05:59:03.837Z,6.13
2023-04-30T06:00:03.830Z,6.18
2023-04-30T06:01:03.824Z,6.22
2023-04-30T06:02:03.893Z,6.28
2023-04-30T06:03:03.824Z,6.32
2023-04-30T06:04:03.811Z,6.36
2023-04-30T06:05:03.845Z,6.40
2023-04-30T06:06:03.813Z,6.43
2023-04-30T06:07:03.787Z,6.46
2023-04-30T06:08:03.749Z,6.47
2023-04-30T06:09:03.737Z,6.50
2023-04-30T06:10:03.732Z,6.51
2023-04-30T06:11:03.717Z,6.51
2023-04-30T06:12:03.723Z,6.53
2023-04-30T06:13:03.692Z,6.59
2023-04-30T06:14:03.678Z,6.61
2023-04-30T06:15:03.671Z,6.65
2023-04-30T06:16:03.688Z,6.69
2023-04-30T06:17:03.655Z,6.72
2023-04-30T06:18:03.673Z,6.77
2023-04-30T06:19:03.642Z,6.79
2023-04-30T06:20:03.610Z,6.83
2023-04-30T06:21:03.605Z,6.81
2023-04-30T06:22:03.605Z,6.83
2023-04-30T06:23:03.579Z,6.89
2023-04-30T06:24:03.573Z,6.95
2023-04-30T06:25:03.579Z,6.98
2023-04-30T06:26:03.546Z,7.05
2023-04-30T06:27:03.557Z,7.12
2023-04-30T06:28:03.528Z,7.19
2023-04-30T06:29:03.528Z,7.23
2023-04-30T06:30:03.500Z,7.29
2023-04-30T06:31:03.511Z,7.34
2023-04-30T06:32:03.504Z,7.37
2023-04-30T06:33:03.493Z,7.41
2023-04-30T06:34:03.483Z,7.50
2023-04-30T06:35:03.464Z,7.55
2023-04-30T06:36:03.434Z,7.59
2023-04-30T06:37:03.483Z,7.66
2023-04-30T06:38:03.405Z,7.72
2023-04-30T06:39:03.397Z,7.78
2023-04-30T06:40:03.398Z,7.79
2023-04-30T06:41:03.383Z,7.81
2023-04-30T06:42:03.386Z,7.87
2023-04-30T06:43:03.352Z,7.93
2023-04-30T06:44:03.350Z,7.97
2023-04-30T06:45:03.336Z,7.99
2023-04-30T06:46:03.340Z,8.00
2023-04-30T06:47:03.334Z,8.02
2023-04-30T06:48:03.334Z,8.03
2023-04-30T06:49:03.291Z,8.08
2023-04-30T06:50:03.271Z,8.12
2023-04-30T06:51:03.267Z,8.14
2023-04-30T06:52:03.269Z,8.12
2023-04-30T06:53:03.245Z,8.11
2023-04-30T06:54:03.225Z,8.14
2023-04-30T06:55:03.216Z,8.20
2023-04-30T06:56:03.208Z,8.25
2023-04-30T06:57:03.220Z,8.33
2023-04-30T06:58:03.189Z,8.39
2023-04-30T06:59:03.175Z,8.40
2023-04-30T07:00:03.162Z,8.44
2023-04-30T07:01:03.192Z,8.45
2023-04-30T07:02:03.168Z,8.47
2023-04-30T07:03:03.227Z,8.45
2023-04-30T07:04:03.165Z,8.45
2023-04-30T07:05:03.137Z,8.47
2023-04-30T07:06:03.179Z,8.53
2023-04-30T07:07:03.111Z,8.58
2023-04-30T07:08:03.067Z,8.65
2023-04-30T07:09:03.063Z,8.66
2023-04-30T07:10:03.053Z,8.69
2023-04-30T07:11:03.043Z,8.73
2023-04-30T07:12:03.041Z,8.75
2023-04-30T07:13:03.023Z,8.81
2023-04-30T07:14:03.012Z,8.86
2023-04-30T07:15:03.000Z,8.93
2023-04-30T07:16:03.002Z,8.93
2023-04-30T07:17:02.993Z,8.93
2023-04-30T07:18:02.994Z,8.91
2023-04-30T07:19:02.947Z,8.93
2023-04-30T07:20:02.950Z,8.94
2023-04-30T07:21:02.927Z,8.97
2023-04-30T07:22:02.940Z,8.94
2023-04-30T07:23:02.904Z,8.93
2023-04-30T07:24:02.923Z,8.90
2023-04-30T07:25:02.881Z,8.97
2023-04-30T07:26:02.907Z,9.10
2023-04-30T07:27:02.937Z,9.21
2023-04-30T07:28:02.857Z,9.31
2023-04-30T07:29:02.839Z,9.40
2023-04-30T07:30:02.836Z,9.48
2023-04-30T07:31:02.823Z,9.49
2023-04-30T07:32:02.931Z,9.48
2023-04-30T07:33:02.863Z,9.49
2023-04-30T07:34:02.781Z,9.49
2023-04-30T07:35:02.770Z,9.46
2023-04-30T07:36:02.754Z,9.57
2023-04-30T07:37:02.775Z,9.70
2023-04-30T07:38:02.731Z,9.76
2023-04-30T07:39:02.745Z,9.88
2023-04-30T07:40:02.735Z,10.01
2023-04-30T07:41:02.714Z,10.07
2023-04-30T07:42:02.717Z,10.12
2023-04-30T07:43:02.703Z,10.18
2023-04-30T07:44:02.673Z,10.22
2023-04-30T07:45:02.686Z,10.30
2023-04-30T07:46:02.749Z,10.33
2023-04-30T07:47:02.653Z,10.36
2023-04-30T07:48:02.653Z,10.32
2023-04-30T07:49:02.613Z,10.24
2023-04-30T07:50:02.642Z,10.28
2023-04-30T07:51:02.595Z,10.28
2023-04-30T07:52:02.599Z,10.32
2023-04-30T07:53:02.577Z,10.36
2023-04-30T07:54:02.558Z,10.39
2023-04-30T07:55:02.555Z,10.37
2023-04-30T07:56:02.561Z,10.40
2023-04-30T07:57:02.556Z,10.42
2023-04-30T07:58:02.514Z,10.43
2023-04-30T07:59:02.510Z,10.46
2023-04-30T08:00:02.498Z,10.51
2023-04-30T08:01:02.481Z,10.42
2023-04-30T08:02:02.504Z,10.36
2023-04-30T08:03:02.626Z,10.32
2023-04-30T08:04:02.588Z,10.33
2023-04-30T08:05:02.445Z,10.36
2023-04-30T08:06:02.457Z,10.28
2023-04-30T08:07:02.433Z,10.25
2023-04-30T08:08:02.406Z,10.26
2023-04-30T08:09:02.399Z,10.39
2023-04-30T08:10:02.382Z,10.47
2023-04-30T08:11:02.379Z,10.58
2023-04-30T08:12:02.378Z,10.66
2023-04-30T08:13:02.351Z,10.76
2023-04-30T08:14:02.344Z,10.65
2023-04-30T08:15:02.330Z,10.60
2023-04-30T08:16:02.353Z,10.53
2023-04-30T08:17:02.430Z,10.42
2023-04-30T08:18:02.309Z,10.37
2023-04-30T08:19:02.285Z,10.24
2023-04-30T08:20:02.269Z,10.10
2023-04-30T08:21:02.266Z,10.01
2023-04-30T08:22:02.271Z,9.93
2023-04-30T08:23:02.243Z,9.85
2023-04-30T08:24:02.266Z,9.89
2023-04-30T08:25:02.228Z,10.00
2023-04-30T08:26:02.207Z,10.14
2023-04-30T08:27:02.204Z,10.24
2023-04-30T08:28:02.191Z,10.37
2023-04-30T08:29:02.190Z,10.53
2023-04-30T08:30:02.162Z,10.65
2023-04-30T08:31:02.149Z,10.74
2023-04-30T08:32:02.247Z,10.81
2023-04-30T08:33:02.143Z,10.88
2023-04-30T08:34:02.114Z,10.91
2023-04-30T08:35:02.117Z,10.94
2023-04-30T08:36:02.099Z,10.94
2023-04-30T08:37:02.099Z,10.84
2023-04-30T08:38:02.074Z,10.80
2023-04-30T08:39:02.070Z,10.81
2023-04-30T08:40:02.100Z,10.86
2023-04-30T08:41:02.058Z,10.92
2023-04-30T08:42:02.054Z,10.94
2023-04-30T08:43:02.009Z,10.96
2023-04-30T08:44:02.001Z,10.94
2023-04-30T08:45:02.019Z,10.96
2023-04-30T08:46:02.042Z,11.01
2023-04-30T08:47:01.993Z,11.07
2023-04-30T08:48:02.004Z,11.10
2023-04-30T08:49:01.946Z,11.14
2023-04-30T08:50:01.936Z,11.19
2023-04-30T08:51:01.937Z,11.24
2023-04-30T08:52:01.948Z,11.24
2023-04-30T08:53:01.916Z,11.25
2023-04-30T08:54:01.894Z,11.32
2023-04-30T08:55:01.895Z,11.35
2023-04-30T08:56:01.871Z,11.44
2023-04-30T08:57:01.889Z,11.49
2023-04-30T08:58:01.855Z,11.50
2023-04-30T08:59:01.845Z,11.53
2023-04-30T09:00:01.831Z,11.57
2023-04-30T09:01:01.923Z,11.62
2023-04-30T09:02:01.918Z,11.67
2023-04-30T09:03:01.869Z,11.72
2023-04-30T09:04:01.843Z,11.74
2023-04-30T09:05:01.782Z,11.78
2023-04-30T09:06:01.809Z,11.77
2023-04-30T09:07:04.234Z,11.83
2023-04-30T09:08:04.130Z,11.85
2023-04-30T09:09:01.763Z,11.85
2023-04-30T09:10:01.720Z,11.83
2023-04-30T09:11:01.708Z,11.83
2023-04-30T09:12:01.740Z,11.75
2023-04-30T09:13:01.689Z,11.78
2023-04-30T09:14:01.689Z,11.80
2023-04-30T09:15:01.689Z,11.86
2023-04-30T09:16:01.677Z,11.87
2023-04-30T09:17:01.648Z,11.83
2023-04-30T09:18:01.686Z,11.90
2023-04-30T09:19:01.615Z,11.97
2023-04-30T09:20:01.596Z,12.05
2023-04-30T09:21:01.589Z,12.05
2023-04-30T09:22:01.590Z,12.08
2023-04-30T09:23:01.580Z,12.08
2023-04-30T09:24:01.600Z,12.08
2023-04-30T09:25:01.545Z,12.06
2023-04-30T09:26:01.845Z,12.02
2023-04-30T09:27:01.518Z,11.94
2023-04-30T09:28:01.522Z,11.87
2023-04-30T09:29:01.500Z,11.90
2023-04-30T09:30:01.488Z,11.96
2023-04-30T09:31:01.509Z,12.06
2023-04-30T09:32:01.630Z,12.11
2023-04-30T09:33:01.537Z,12.16
2023-04-30T09:34:01.461Z,12.24
2023-04-30T09:35:01.437Z,12.31
2023-04-30T09:36:01.415Z,12.30
2023-04-30T09:37:01.422Z,12.21
2023-04-30T09:38:01.415Z,12.16
2023-04-30T09:39:01.390Z,12.21
2023-04-30T09:40:01.377Z,12.27
2023-04-30T09:41:01.652Z,12.34
2023-04-30T09:42:01.349Z,12.39
2023-04-30T09:43:01.365Z,12.44
2023-04-30T09:44:01.378Z,12.48
2023-04-30T09:45:01.345Z,12.54
2023-04-30T09:46:01.306Z,12.52
2023-04-30T09:47:01.348Z,12.54
2023-04-30T09:48:09.239Z,12.52
2023-04-30T09:49:01.295Z,12.59
2023-04-30T09:50:01.283Z,12.63
2023-04-30T09:51:01.258Z,12.70
2023-04-30T09:52:01.300Z,12.77
2023-04-30T09:53:01.239Z,12.82
2023-04-30T09:54:01.249Z,12.88
2023-04-30T09:55:01.212Z,12.89
2023-04-30T09:56:01.197Z,12.81
2023-04-30T09:57:01.184Z,12.81
2023-04-30T09:58:01.173Z,12.84
2023-04-30T09:59:01.166Z,12.88
2023-04-30T10:00:01.176Z,12.79
2023-04-30T10:01:01.185Z,12.75
2023-04-30T10:02:01.136Z,12.71
2023-04-30T10:03:01.180Z,12.75
2023-04-30T10:04:01.154Z,12.81
2023-04-30T10:05:01.104Z,12.71
2023-04-30T10:06:01.181Z,12.74
2023-04-30T10:07:01.100Z,12.71
2023-04-30T10:08:01.084Z,12.71
2023-04-30T10:09:01.060Z,12.64
2023-04-30T10:10:01.047Z,12.71
2023-04-30T10:11:01.049Z,12.84
2023-04-30T10:12:01.055Z,12.97
2023-04-30T10:13:01.015Z,13.00
2023-04-30T10:14:00.994Z,13.03
2023-04-30T10:15:00.989Z,13.03
2023-04-30T10:16:01.003Z,13.03
2023-04-30T10:17:01.013Z,13.11
2023-04-30T10:18:01.201Z,12.96
2023-04-30T10:19:00.960Z,12.93
2023-04-30T10:20:00.942Z,12.79
2023-04-30T10:21:00.920Z,12.77
2023-04-30T10:22:00.915Z,12.71
2023-04-30T10:23:00.900Z,12.82
2023-04-30T10:24:00.920Z,12.93
2023-04-30T10:25:00.880Z,13.00
2023-04-30T10:26:00.873Z,13.14
2023-04-30T10:27:00.849Z,13.25
2023-04-30T10:28:02.582Z,13.38
2023-04-30T10:29:00.836Z,13.49
2023-04-30T10:30:00.844Z,13.59
2023-04-30T10:31:00.808Z,13.69
2023-04-30T10:32:00.834Z,13.70
2023-04-30T10:33:00.817Z,13.80
2023-04-30T10:34:00.785Z,13.84
2023-04-30T10:35:00.766Z,13.87
2023-04-30T10:36:00.774Z,13.87
2023-04-30T10:37:00.743Z,13.91
2023-04-30T10:38:00.740Z,13.84
2023-04-30T10:39:00.733Z,13.87
2023-04-30T10:40:00.711Z,13.83
2023-04-30T10:41:00.713Z,13.84
2023-04-30T10:42:00.689Z,13.79
2023-04-30T10:43:00.681Z,13.74
2023-04-30T10:44:02.020Z,13.79
2023-04-30T10:45:00.672Z,13.81
2023-04-30T10:46:00.732Z,13.87
2023-04-30T10:47:00.650Z,13.94
2023-04-30T10:48:00.637Z,14.06
2023-04-30T10:49:00.609Z,14.07
2023-04-30T10:50:00.602Z,14.10
2023-04-30T10:51:00.612Z,14.17
2023-04-30T10:52:00.604Z,14.17
2023-04-30T10:53:00.564Z,14.16
2023-04-30T10:54:00.561Z,14.16
2023-04-30T10:55:00.551Z,14.20
2023-04-30T10:56:00.775Z,14.16
2023-04-30T10:57:00.513Z,14.10
2023-04-30T10:58:00.522Z,14.06
2023-04-30T10:59:00.505Z,14.02
2023-04-30T11:00:00.509Z,14.01
2023-04-30T11:01:00.524Z,14.04
2023-04-30T11:02:00.640Z,13.95
2023-04-30T11:03:00.520Z,14.04
2023-04-30T11:04:00.455Z,14.09
2023-04-30T11:05:00.464Z,14.14
2023-04-30T11:06:00.457Z,14.25
2023-04-30T11:07:00.409Z,14.32
2023-04-30T11:08:00.398Z,14.46
2023-04-30T11:09:00.391Z,14.42
2023-04-30T11:10:00.377Z,14.50
2023-04-30T11:11:00.398Z,14.53
2023-04-30T11:12:00.377Z,14.62
2023-04-30T11:13:01.652Z,14.65
2023-04-30T11:14:00.344Z,14.74
2023-04-30T11:15:00.331Z,14.71
2023-04-30T11:16:00.345Z,14.64
2023-04-30T11:17:00.294Z,14.56
2023-04-30T11:18:00.307Z,14.60
2023-04-30T11:19:00.269Z,14.62
2023-04-30T11:20:00.269Z,14.54
2023-04-30T11:21:00.261Z,14.46
2023-04-30T11:22:00.238Z,14.31
2023-04-30T11:23:00.229Z,14.32
2023-04-30T11:24:00.216Z,14.42
2023-04-30T11:25:00.223Z,14.54
2023-04-30T11:26:00.209Z,14.68
2023-04-30T11:27:00.186Z,14.81
2023-04-30T11:28:00.182Z,14.91
2023-04-30T11:29:00.189Z,14.99
2023-04-30T11:30:00.176Z,15.05
2023-04-30T11:31:00.190Z,15.17
2023-04-30T11:32:00.261Z,15.24
2023-04-30T11:33:00.177Z,15.27
2023-04-30T11:34:00.121Z,15.21
2023-04-30T11:35:00.125Z,15.27
2023-04-30T11:36:00.165Z,15.31
2023-04-30T11:37:00.086Z,15.30
2023-04-30T11:38:00.077Z,15.35
2023-04-30T11:39:00.052Z,15.35
2023-04-30T11:40:00.068Z,15.27
2023-04-30T11:41:00.062Z,15.23
2023-04-30T11:42:00.016Z,15.28
2023-04-30T11:43:00.010Z,15.38
2023-04-30T11:43:59.999Z,15.45
2023-04-30T11:44:59.992Z,15.45
2023-04-30T11:45:59.997Z,15.48
2023-04-30T11:47:00.115Z,15.52
2023-04-30T11:47:59.982Z,15.57
2023-04-30T11:48:59.948Z,15.54
2023-04-30T11:49:59.938Z,15.49
2023-04-30T11:50:59.944Z,15.48
2023-04-30T11:51:59.925Z,15.49
2023-04-30T11:52:59.901Z,15.57
2023-04-30T11:53:59.893Z,15.60
2023-04-30T11:54:59.880Z,15.68
2023-04-30T11:55:59.895Z,15.76
2023-04-30T11:56:59.870Z,15.74
2023-04-30T11:57:59.852Z,15.75
2023-04-30T11:58:59.839Z,15.63
2023-04-30T11:59:59.835Z,15.64
2023-04-30T12:00:59.830Z,15.63
2023-04-30T12:02:06.397Z,15.66
2023-04-30T12:03:00.032Z,15.72
2023-04-30T12:03:59.903Z,15.75
2023-04-30T12:04:59.770Z,15.81
2023-04-30T12:05:59.864Z,15.84
2023-04-30T12:06:59.760Z,15.86
2023-04-30T12:07:59.744Z,15.92
2023-04-30T12:08:59.735Z,15.96
2023-04-30T12:09:59.717Z,15.88
2023-04-30T12:10:59.734Z,15.88
2023-04-30T12:11:59.697Z,15.88
2023-04-30T12:12:59.692Z,15.97
2023-04-30T12:13:59.677Z,15.93
2023-04-30T12:14:59.671Z,15.82
2023-04-30T12:15:59.685Z,15.85
2023-04-30T12:16:59.750Z,15.60
2023-04-30T12:17:59.802Z,15.39
2023-04-30T12:18:59.644Z,15.41
2023-04-30T12:19:59.609Z,15.51
2023-04-30T12:20:59.626Z,15.64
2023-04-30T12:21:59.599Z,15.72
2023-04-30T12:22:59.592Z,15.82
2023-04-30T12:24:01.529Z,15.88
2023-04-30T12:24:59.555Z,15.88
2023-04-30T12:25:59.562Z,15.89
2023-04-30T12:26:59.538Z,16.00
2023-04-30T12:27:59.540Z,16.00
2023-04-30T12:28:59.523Z,15.97
2023-04-30T12:29:59.507Z,15.99
2023-04-30T12:30:59.529Z,16.03
2023-04-30T12:31:59.519Z,16.11
2023-04-30T12:32:59.482Z,15.96
2023-04-30T12:33:59.451Z,15.96
2023-04-30T12:34:59.449Z,16.01
2023-04-30T12:35:59.466Z,15.92
2023-04-30T12:36:59.435Z,15.66
2023-04-30T12:37:59.417Z,15.54
2023-04-30T12:38:59.398Z,15.35
2023-04-30T12:39:59.397Z,15.31
2023-04-30T12:41:00.686Z,15.42
2023-04-30T12:41:59.372Z,15.59
2023-04-30T12:42:59.361Z,15.66
2023-04-30T12:43:59.349Z,15.84
2023-04-30T12:44:59.352Z,15.97
2023-04-30T12:45:59.415Z,16.03
2023-04-30T12:46:59.312Z,16.11
2023-04-30T12:47:59.431Z,16.18
2023-04-30T12:48:59.292Z,16.31
2023-04-30T12:49:59.285Z,16.40
2023-04-30T12:50:59.287Z,16.38
2023-04-30T12:51:59.257Z,16.38
2023-04-30T12:52:59.250Z,16.20
2023-04-30T12:53:59.243Z,16.15
2023-04-30T12:54:59.229Z,16.16
2023-04-30T12:55:59.236Z,16.18
2023-04-30T12:56:59.201Z,16.22
2023-04-30T12:57:59.201Z,16.34
2023-04-30T12:58:59.186Z,16.55
2023-04-30T12:59:59.171Z,16.75
2023-04-30T13:00:59.203Z,16.86
2023-04-30T13:01:59.277Z,16.93
2023-04-30T13:02:59.194Z,17.00
2023-04-30T13:03:59.332Z,16.93
2023-04-30T13:04:59.123Z,16.90
2023-04-30T13:05:59.149Z,16.93
2023-04-30T13:06:59.090Z,17.08